Cessnock, New South Wales

12:01 PM AEST on August 01, 2015 (GMT +1000)
Aberdare | | Change Station
CLOSE
Current Station
Personal Weather Station
Location: Cessnock, N.S.W.
Elevation: 290 ft
Nearby Weather Stations

Elev 290 ft 32.84 °S, 151.37 °E | Updated 1 minute ago

Clear
Clear
66.0 °F
Feels Like 66.0 °F
N
2.0
Wind Variable Wind from NW
Gusts 2.0 mph

Today
High -- | Low -- °F
--% Chance of Precip.
Yesterday
High -- | Low -- °F
Precip. -- in
6:45 AM 5:16 PM
Waxing Gibbous, 99% visible
Pressure 30.06 in
Visibility 6.2 miles
Clouds
Dew Point 46 °F
Humidity 49%
Rainfall 0.00 in
Snow Depth Not available.
UV Not available.
Pollen Not available.
Air Quality Not available.
Flu Activity Not available.
METAR YWLM 010200Z AUTO 34008KT 9999 // NCD 19/06 Q1018

More Conditions Fewer Conditions

Pressure 30.06 in
Visibility 6.2 miles
Clouds
Dew Point 46 °F
Humidity 49%
Rainfall 0.00 in
Snow Depth Not available.
UV Not available.
Pollen Not available.
Air Quality Not available.
Flu Activity Not available.
METAR YWLM 010200Z AUTO 34008KT 9999 // NCD 19/06 Q1018

More Conditions Fewer Conditions

10-Day Weather Forecast

×

Almanac

Astronomy

Aug. 01, 2015 Rise Set
Actual Time
Civil Twilight
Nautical Twilight
Astronomical Twilight
Moon
Length of Visible Light
Length of Day
Tomorrow will be .
, % of the Moon is Illuminated

Today's Extremes

Country Highs Country Lows

Community

WunderPhotos

Upload Photos

1,842,801 photos uploaded!

WunderBlogs® & News

Nearby

Air Quality

  Air Quality AQ Index Pollutant
Not available.

Snow Depth

Station Depth Elevation

Earthquake Activity

City Distance Mag. Time & Date
Minimum magnitude displayed is 2.5.

Coastal Water Temperatures

Place Temperature

Stations

Nearby Weather Stations

Station Location Temp. Windchill Dew Point Humidity Wind Precip. Elev Updated Type